tititudorancea.com
Station Historical Data
Daily Summary for May 16, 2018 Units:  Metric    English   Both
« Previous Day
Next Day »
Daily Weekly Monthly Yearly Custom
  High: Low: Average:
Temperature: -17.8 °C 6.1 °C 8.6 °C
Dew Point: -17.8 °C 4.3 °C 5.3 °C
Humidity: Humidity % 65 % 80 %
Wind Speed: 0 km/h 0 km/h 8.5 km/h
Wind Gust: 0 km/h - -
Wind:- - SW
Pressure: 0 hPa 1029.7 hPa -
Precipitation: 0 mm    
Historical Graphs
 
 
Ararat weather Find more about Weather in Ararat, AU


 



 


Tabular Data for May 16, 2018
Time Temperature Dew Point Pressure Wind Wind Speed Wind Gust Humidity Rainfall Rate (Hourly)
-17.8 °C -17.8 °C 0 hPa Calm     Humidity % 0 mm
00:04 7.1 °C 5.3 °C 1030.4 hPa South 7.6 km/h 14.8 km/h 88 % 0 mm
00:09 7.2 °C 5.2 °C 1030.4 hPa South 6.6 km/h 13 km/h 87 % 0 mm
00:14 7.3 °C 5.3 °C 1030 hPa South 5.6 km/h 13 km/h 87 % 0 mm
00:19 7.3 °C 5.3 °C 1030 hPa South 6.3 km/h 9.3 km/h 87 % 0 mm
00:24 7.3 °C 5.3 °C 1030 hPa South 7.1 km/h 13 km/h 87 % 0 mm
00:29 7.3 °C 5.3 °C 1030 hPa South 8.2 km/h 12.9 km/h 87 % 0 mm
00:34 7.4 °C 5.4 °C 1030 hPa SSW 8.7 km/h 12.9 km/h 87 % 0 mm
00:39 7.2 °C 5.1 °C 1030 hPa SSW 12.2 km/h 16.1 km/h 86 % 0 mm
00:44 7.1 °C 5.1 °C 1030 hPa SSW 9.8 km/h 14.8 km/h 87 % 0 mm
00:49 7.1 °C 5.1 °C 1030 hPa North 6 km/h 13 km/h 87 % 0 mm
00:54 7.1 °C 5.1 °C 1030 hPa SSW 10.3 km/h 18.5 km/h 87 % 0 mm
00:59 7.1 °C 5.1 °C 1030 hPa SSW 6.6 km/h 11.1 km/h 87 % 0 mm
01:04 7 °C 5 °C 1030 hPa SSW 8.4 km/h 13 km/h 87 % 0 mm
01:09 7 °C 5 °C 1030 hPa SSW 8.9 km/h 11.3 km/h 87 % 0 mm
01:14 7 °C 5 °C 1030 hPa SSW 5.8 km/h 14.8 km/h 87 % 0 mm
01:19 7 °C 5 °C 1030 hPa North 9.2 km/h 11.1 km/h 87 % 0 mm
01:24 7 °C 5 °C 1030 hPa SSW 3.5 km/h 8 km/h 87 % 0 mm
01:29 7 °C 5 °C 1030.4 hPa SSW 5 km/h 11.3 km/h 87 % 0 mm
01:34 6.9 °C 4.9 °C 1030.4 hPa SSW 7.1 km/h 7.4 km/h 87 % 0 mm
01:39 6.8 °C 4.8 °C 1030 hPa SSW 3.4 km/h 7.4 km/h 87 % 0 mm
01:44 6.7 °C 4.7 °C 1030 hPa SSW 4.3 km/h 7.4 km/h 87 % 0 mm
01:49 6.6 °C 4.6 °C 1030 hPa SSW 5 km/h 9.3 km/h 87 % 0 mm
01:54 6.4 °C 4.4 °C 1030 hPa SSW 1.1 km/h 3.7 km/h 87 % 0 mm
01:59 6.3 °C 4.5 °C 1030 hPa SSW 2.1 km/h 5.6 km/h 88 % 0 mm
02:04 6.3 °C 4.4 °C 1030 hPa SSW 4.7 km/h 5.6 km/h 88 % 0 mm
02:09 6.2 °C 4.4 °C 1030 hPa SSW 3.2 km/h 9.3 km/h 88 % 0 mm
02:14 6.2 °C 4.3 °C 1030 hPa SSW 5.3 km/h 5.6 km/h 88 % 0 mm
02:19 6.1 °C 4.4 °C 1030 hPa North 4.5 km/h 9.3 km/h 89 % 0 mm
02:24 6.1 °C 4.4 °C 1030 hPa SSW 1.8 km/h 5.6 km/h 89 % 0 mm
02:29 6.1 °C 4.4 °C 1030 hPa SSW 4.7 km/h 7.4 km/h 89 % 0 mm
02:34 6.1 °C 4.4 °C 1030 hPa SSW 4.8 km/h 8 km/h 89 % 0 mm
02:39 6.2 °C 4.6 °C 1030 hPa North 5.3 km/h 9.7 km/h 89 % 0 mm
02:44 6.3 °C 4.6 °C 1030 hPa SSW 5.8 km/h 9.3 km/h 89 % 0 mm
02:49 6.3 °C 4.8 °C 1030 hPa SSW 3.1 km/h 5.6 km/h 90 % 0 mm
02:54 6.4 °C 4.9 °C 1029.7 hPa SSW 3.2 km/h 5.6 km/h 90 % 0 mm
02:59 6.4 °C 4.9 °C 1029.7 hPa SSW 2.9 km/h 5.6 km/h 90 % 0 mm
03:04 6.4 °C 4.9 °C 1030 hPa SSW 3.7 km/h 4.8 km/h 90 % 0 mm
03:05 6.4 °C 4.9 °C 1030 hPa North 3.4 km/h 5.6 km/h 90 % 0 mm
03:10 6.4 °C 4.9 °C 1029.7 hPa North 5.5 km/h 7.4 km/h 90 % 0 mm
03:15 6.4 °C 4.9 °C 1029.7 hPa SSW 5 km/h 7.4 km/h 90 % 0 mm
03:20 6.4 °C 4.9 °C 1029.7 hPa SSW 6 km/h 7.4 km/h 90 % 0 mm
03:25 6.5 °C 5 °C 1029.7 hPa North 3.4 km/h 5.6 km/h 90 % 0 mm
03:30 6.5 °C 5 °C 1029.7 hPa SSW 5.3 km/h 5.6 km/h 90 % 0 mm
03:35 6.5 °C 5 °C 1029.7 hPa SSW 5.6 km/h 7.4 km/h 90 % 0 mm
03:40 6.5 °C 5 °C 1029.7 hPa SSW 7.1 km/h 11.1 km/h 90 % 0 mm
03:45 6.6 °C 5.2 °C 1029.7 hPa SSW 6.8 km/h 9.3 km/h 91 % 0 mm
03:50 6.6 °C 5.2 °C 1029.7 hPa SSW 7.7 km/h 9.3 km/h 91 % 0 mm
03:55 6.6 °C 5.2 °C 1030 hPa SSW 8.2 km/h 9.7 km/h 91 % 0 mm
04:00 6.6 °C 5.2 °C 1030 hPa SSW 8.2 km/h 9.3 km/h 91 % 0 mm
04:05 6.7 °C 5.3 °C 1030 hPa SSW 7.2 km/h 9.7 km/h 91 % 0 mm
04:10 6.7 °C 5.3 °C 1029.7 hPa SSW 6.3 km/h 8 km/h 91 % 0 mm
04:15 6.7 °C 5.3 °C 1029.7 hPa SSW 7.1 km/h 13 km/h 91 % 0 mm
04:20 6.7 °C 5.3 °C 1030 hPa SSW 8.4 km/h 13 km/h 91 % 0 mm
04:25 6.6 °C 5.2 °C 1030 hPa North 8 km/h 9.3 km/h 91 % 0 mm
04:28 6.6 °C 5.2 °C 1030 hPa SSW 5.5 km/h 8 km/h 91 % 0 mm
04:33 6.6 °C 5.2 °C 1030 hPa SSW 5.6 km/h 6.4 km/h 91 % 0 mm
04:38 6.6 °C 5.2 °C 1030 hPa SSW 3.9 km/h 5.6 km/h 91 % 0 mm
04:43 6.7 °C 5.4 °C 1030 hPa SSW 7.2 km/h 9.3 km/h 92 % 0 mm
04:48 6.7 °C 5.5 °C 1030 hPa SSW 4.7 km/h 6.4 km/h 92 % 0 mm
04:53 6.7 °C 5.5 °C 1030 hPa North 7.7 km/h 11.1 km/h 92 % 0 mm
04:58 6.7 °C 5.4 °C 1030 hPa SSW 7.4 km/h 13 km/h 92 % 0 mm
05:03 6.7 °C 5.4 °C 1030 hPa SSW 6.9 km/h 7.4 km/h 92 % 0 mm
05:08 6.7 °C 5.5 °C 1030 hPa SSW 3.9 km/h 6.4 km/h 92 % 0 mm
05:13 6.7 °C 5.5 °C 1030 hPa SSW 2.9 km/h 5.6 km/h 92 % 0 mm
05:18 6.6 °C 5.4 °C 1030 hPa North 1.6 km/h 5.6 km/h 92 % 0 mm
05:23 6.6 °C 5.3 °C 1030 hPa Calm     92 % 0 mm
05:28 6.4 °C 5.2 °C 1030 hPa SSW 1.8 km/h 5.6 km/h 92 % 0 mm
05:33 6.4 °C 5.4 °C 1030 hPa North 4.5 km/h 9.3 km/h 93 % 0 mm
05:38 6.4 °C 5.4 °C 1030 hPa SSW 5.5 km/h 6.4 km/h 93 % 0 mm
05:43 6.6 °C 5.5 °C 1030.4 hPa SSW 1.3 km/h 4.8 km/h 93 % 0 mm
05:48 6.7 °C 5.6 °C 1030.4 hPa SSW 8.2 km/h 11.1 km/h 93 % 0 mm
05:53 6.7 °C 5.7 °C 1030.4 hPa SSW 5.3 km/h 9.3 km/h 93 % 0 mm
05:58 6.8 °C 5.7 °C 1030.4 hPa SSW 5 km/h 7.4 km/h 93 % 0 mm
06:03 6.7 °C 5.7 °C 1030.4 hPa SSW 5.8 km/h 11.1 km/h 93 % 0 mm
06:08 6.7 °C 5.7 °C 1030.4 hPa SSW 3.9 km/h 5.6 km/h 93 % 0 mm
06:13 6.9 °C 6 °C 1030.4 hPa SSW 4.7 km/h 5.6 km/h 94 % 0 mm
06:18 7 °C 6.1 °C 1030.4 hPa SSW 6.1 km/h 6.4 km/h 94 % 0 mm
06:23 7.1 °C 6.2 °C 1030.4 hPa SSW 1.6 km/h 5.6 km/h 94 % 0 mm
06:28 7.1 °C 6.1 °C 1030.7 hPa North 4.3 km/h 11.1 km/h 93 % 0 mm
06:33 7.1 °C 6 °C 1030.7 hPa SSW 2.6 km/h 5.6 km/h 93 % 0 mm
06:38 7 °C 5.9 °C 1030.7 hPa SSW 6.3 km/h 13 km/h 93 % 0 mm
06:43 6.9 °C 5.9 °C 1030.7 hPa SSW 4.7 km/h 8 km/h 93 % 0 mm
06:48 6.9 °C 5.9 °C 1030.7 hPa North 0.6 km/h 4.8 km/h 93 % 0 mm
06:53 6.9 °C 5.8 °C 1030.7 hPa SSW 0.8 km/h 11.1 km/h 93 % 0 mm
06:58 6.9 °C 5.8 °C 1030.7 hPa SSW 4 km/h 5.6 km/h 93 % 0 mm
07:01 6.9 °C 5.8 °C 1030.7 hPa SSW 1.8 km/h 6.4 km/h 93 % 0 mm
07:06 6.9 °C 6 °C 1030.7 hPa SSW 4 km/h 6.4 km/h 94 % 0 mm
07:11 6.9 °C 6.1 °C 1030.7 hPa SSW 3.5 km/h 9.3 km/h 94 % 0 mm
07:16 6.9 °C 6.1 °C 1030.7 hPa North 6.4 km/h 7.4 km/h 94 % 0 mm
07:21 7 °C 6.1 °C 1030.7 hPa SSW 6.4 km/h 11.1 km/h 94 % 0 mm
07:26 7 °C 5.9 °C 1030.7 hPa SSW 5.1 km/h 7.4 km/h 93 % 0 mm
07:31 7.1 °C 6 °C 1030.7 hPa North 4.2 km/h 7.4 km/h 93 % 0 mm
07:36 7.1 °C 6 °C 1030.7 hPa SSW 6.4 km/h 11.1 km/h 93 % 0 mm
07:41 7.1 °C 6 °C 1030.7 hPa SSW 6.4 km/h 11.1 km/h 93 % 0 mm
07:46 7.1 °C 6.1 °C 1031 hPa SSW 6.4 km/h 9.3 km/h 93 % 0 mm
07:51 7.1 °C 6.1 °C 1031 hPa SSW 8 km/h 16.7 km/h 93 % 0 mm
07:56 7.1 °C 6.1 °C 1031 hPa North 2.3 km/h 9.3 km/h 93 % 0 mm
08:01 7.1 °C 6.1 °C 1031 hPa North 3.7 km/h 11.1 km/h 93 % 0 mm
08:06 7.2 °C 6.1 °C 1031 hPa SSW 5.8 km/h 9.3 km/h 93 % 0 mm
08:11 7.2 °C 6.2 °C 1031.4 hPa SSW 3.5 km/h 5.6 km/h 93 % 0 mm
08:16 7.3 °C 6.4 °C 1031.4 hPa SSW 2.3 km/h 7.4 km/h 94 % 0 mm
08:21 7.4 °C 6.5 °C 1031.4 hPa SSW 4.2 km/h 9.3 km/h 94 % 0 mm
08:26 7.4 °C 6.4 °C 1031.4 hPa SSW 3.9 km/h 9.7 km/h 93 % 0 mm
08:31 7.5 °C 6.4 °C 1031.4 hPa South 9.8 km/h 11.1 km/h 93 % 0 mm
08:36 7.6 °C 6.5 °C 1031.4 hPa SSW 13.2 km/h 13.2 km/h 93 % 0 mm
08:41 7.7 °C 6.6 °C 1031.4 hPa North 10.3 km/h 10.3 km/h 93 % 0 mm
08:46 7.8 °C 6.7 °C 1031.4 hPa SSW 11.3 km/h 14.8 km/h 93 % 0 mm
08:51 7.8 °C 6.8 °C 1031.4 hPa South 8.2 km/h 11.1 km/h 93 % 0 mm
08:56 8 °C 6.8 °C 1031.4 hPa South 5.5 km/h 8 km/h 92 % 0 mm
09:01 8.1 °C 6.8 °C 1031.4 hPa South 6.1 km/h 7.4 km/h 92 % 0 mm
09:06 8.1 °C 6.9 °C 1031.4 hPa South 10.5 km/h 14.8 km/h 92 % 0 mm
09:11 8.2 °C 7 °C 1031.7 hPa South 7.1 km/h 18.5 km/h 92 % 0 mm
09:16 8.3 °C 6.9 °C 1031.7 hPa South 11.6 km/h 16.7 km/h 91 % 0 mm
09:21 8.4 °C 7.1 °C 1031.7 hPa South 7.1 km/h 9.3 km/h 91 % 0 mm
09:26 8.6 °C 7.2 °C 1031.7 hPa South 7.7 km/h 13 km/h 91 % 0 mm
09:31 8.6 °C 7.1 °C 1031.7 hPa South 13.5 km/h 14.8 km/h 90 % 0 mm
09:36 8.7 °C 7.1 °C 1031.7 hPa South 9.7 km/h 17.7 km/h 90 % 0 mm
09:41 8.7 °C 7.2 °C 1031.7 hPa South 10.8 km/h 10.8 km/h 90 % 0 mm
09:46 8.8 °C 7.2 °C 1032.1 hPa South 12.2 km/h 17.7 km/h 90 % 0 mm
09:51 8.9 °C 7.3 °C 1031.7 hPa South 8.7 km/h 14.8 km/h 90 % 0 mm
09:56 9 °C 7.3 °C 1031.7 hPa South 4.8 km/h 13 km/h 89 % 0 mm
10:01 9.2 °C 7.4 °C 1031.7 hPa North 7.7 km/h 13 km/h 89 % 0 mm
10:06 9.4 °C 7.3 °C 1031.7 hPa SSE 9.5 km/h 12.9 km/h 87 % 0 mm
10:11 9.6 °C 7.2 °C 1032.1 hPa SW 12.1 km/h 20.9 km/h 85 % 0 mm
10:16 9.6 °C 6.7 °C 1032.1 hPa North 12.7 km/h 20.4 km/h 82 % 0 mm
10:21 9.8 °C 6.7 °C 1032.1 hPa South 10.1 km/h 14.8 km/h 81 % 0 mm
10:26 9.9 °C 6.8 °C 1032.1 hPa South 10.8 km/h 17.7 km/h 81 % 0 mm
10:31 10 °C 6.5 °C 1032.1 hPa South 7.9 km/h 16.7 km/h 79 % 0 mm
10:36 10.2 °C 6.1 °C 1032.1 hPa South 8.9 km/h 11.1 km/h 76 % 0 mm
10:42 10.3 °C 5.8 °C 1032.1 hPa South 12.9 km/h 20.4 km/h 74 % 0 mm
10:47 10.3 °C 6.1 °C 1032.1 hPa South 10.6 km/h 22.2 km/h 75 % 0 mm
10:52 10.3 °C 6.1 °C 1032.1 hPa South 16.6 km/h 17.7 km/h 75 % 0 mm
10:57 10.2 °C 5.9 °C 1032.1 hPa South 10.3 km/h 18.5 km/h 75 % 0 mm
11:02 10.1 °C 6.1 °C 1032.1 hPa South 10.8 km/h 18.5 km/h 76 % 0 mm
11:07 10.1 °C 5.9 °C 1032.1 hPa SSW 14.8 km/h 20.4 km/h 75 % 0 mm
11:12 10.2 °C 6.1 °C 1032.1 hPa SSW 14.2 km/h 20.4 km/h 76 % 0 mm
11:17 10.2 °C 6.2 °C 1032.1 hPa SSW 10.1 km/h 18.5 km/h 76 % 0 mm
11:22 10.2 °C 6 °C 1032.1 hPa SSE 12.9 km/h 18.5 km/h 75 % 0 mm
11:27 10.2 °C 6.2 °C 1032.1 hPa North 18.5 km/h 22.2 km/h 76 % 0 mm
11:32 10.3 °C 6.1 °C 1032.1 hPa SSW 17.4 km/h 25.9 km/h 75 % 0 mm
11:37 10.2 °C 5.7 °C 1032.1 hPa North 13.7 km/h 22.2 km/h 74 % 0 mm
11:42 10.3 °C 5.4 °C 1032.1 hPa South 12.2 km/h 18.5 km/h 72 % 0 mm
11:47 10.3 °C 5.4 °C 1032.1 hPa South 13.2 km/h 27.8 km/h 72 % 0 mm
11:52 10.4 °C 5.6 °C 1031.7 hPa SSE 15.1 km/h 18.5 km/h 72 % 0 mm
11:57 10.4 °C 5.6 °C 1031.7 hPa South 13.2 km/h 18.5 km/h 72 % 0 mm
12:02 10.4 °C 5.6 °C 1031.7 hPa SSW 10.3 km/h 14.8 km/h 72 % 0 mm
12:07 10.4 °C 5.3 °C 1031.7 hPa South 10.8 km/h 18.5 km/h 71 % 0 mm
12:12 10.4 °C 5.2 °C 1031.7 hPa SSE 11.9 km/h 18.5 km/h 70 % 0 mm
12:17 10.3 °C 5.1 °C 1031.4 hPa South 15.6 km/h 22.2 km/h 70 % 0 mm
12:22 10.3 °C 5.2 °C 1031.7 hPa SSE 16.9 km/h 22.2 km/h 71 % 0 mm
12:27 10.3 °C 5.3 °C 1031.4 hPa South 8.2 km/h 14.8 km/h 71 % 0 mm
12:32 10.3 °C 5.2 °C 1031.4 hPa South 13.2 km/h 17.7 km/h 71 % 0 mm
12:37 10.3 °C 5.3 °C 1031.4 hPa South 14.3 km/h 24.1 km/h 71 % 0 mm
12:42 10.3 °C 5.1 °C 1031.4 hPa SSE 13.7 km/h 27.8 km/h 70 % 0 mm
12:47 10.4 °C 4.9 °C 1031.4 hPa South 15.3 km/h 25.7 km/h 69 % 0 mm
12:52 10.4 °C 4.9 °C 1031.4 hPa South 16.3 km/h 22.5 km/h 69 % 0 mm
12:57 10.4 °C 5 °C 1031.4 hPa South 9.5 km/h 14.8 km/h 69 % 0 mm
13:02 10.6 °C 5.7 °C 1031 hPa South 8 km/h 20.9 km/h 72 % 0 mm
13:07 10.7 °C 5.3 °C 1031 hPa SE 12.7 km/h 20.4 km/h 69 % 0 mm
13:12 10.8 °C 5.3 °C 1031 hPa South 4.5 km/h 7.4 km/h 69 % 0 mm
13:17 10.8 °C 5.1 °C 1031 hPa South 15.9 km/h 20.9 km/h 68 % 0 mm
13:22 10.7 °C 5 °C 1030.7 hPa South 12.4 km/h 18.5 km/h 68 % 0 mm
13:27 10.7 °C 5.2 °C 1030.7 hPa South 13 km/h 18.5 km/h 69 % 0 mm
13:32 10.7 °C 5.2 °C 1030.7 hPa South 12.4 km/h 18.5 km/h 69 % 0 mm
13:37 10.7 °C 5.1 °C 1030.7 hPa North 12.9 km/h 24.1 km/h 68 % 0 mm
13:42 10.7 °C 5.2 °C 1030.7 hPa SSW 9 km/h 18.5 km/h 69 % 0 mm
13:47 10.7 °C 5.3 °C 1030.7 hPa SSW 15 km/h 24.1 km/h 69 % 0 mm
13:52 10.7 °C 5.3 °C 1030.7 hPa South 14.2 km/h 18.5 km/h 69 % 0 mm
13:57 10.8 °C 5.6 °C 1030.7 hPa South 8.2 km/h 14.5 km/h 70 % 0 mm
14:02 10.7 °C 5.3 °C 1030.7 hPa North 14.3 km/h 18.5 km/h 69 % 0 mm
14:07 10.7 °C 5.4 °C 1030.7 hPa SSW 14.2 km/h 22.2 km/h 70 % 0 mm
14:12 10.7 °C 5.4 °C 1030.4 hPa SSW 11.4 km/h 14.8 km/h 70 % 0 mm
14:17 10.7 °C 5.4 °C 1030.4 hPa SSW 9.8 km/h 14.8 km/h 70 % 0 mm
14:22 10.9 °C 5.4 °C 1030.4 hPa South 12.7 km/h 20.9 km/h 69 % 0 mm
14:27 10.9 °C 5.2 °C 1030.4 hPa North 9 km/h 11.1 km/h 68 % 0 mm
14:32 11 °C 5.3 °C 1030.4 hPa North 16.4 km/h 24.1 km/h 68 % 0 mm
14:37 11 °C 5.3 °C 1030.4 hPa SSW 17.2 km/h 20.4 km/h 68 % 0 mm
14:42 10.9 °C 5.5 °C 1030.4 hPa South 11.9 km/h 20.4 km/h 69 % 0 mm
14:47 10.9 °C 5.4 °C 1030.4 hPa SSW 11.4 km/h 14.8 km/h 69 % 0 mm
14:52 10.9 °C 5.4 °C 1030.4 hPa North 10 km/h 18.5 km/h 69 % 0 mm
14:57 10.9 °C 5.8 °C 1030.4 hPa South 12.2 km/h 18.5 km/h 71 % 0 mm
15:02 10.9 °C 5.6 °C 1030.4 hPa South 13.2 km/h 18.5 km/h 70 % 0 mm
15:07 10.8 °C 5.5 °C 1030.4 hPa South 10.8 km/h 14.8 km/h 70 % 0 mm
15:12 10.8 °C 5.6 °C 1030.4 hPa South 16.3 km/h 24.1 km/h 70 % 0 mm
15:17 10.8 °C 5.5 °C 1030.4 hPa North 12.4 km/h 16.7 km/h 70 % 0 mm
15:22 10.7 °C 5.1 °C 1030.4 hPa South 16.7 km/h 25.9 km/h 68 % 0 mm
15:27 10.7 °C 4.6 °C 1030.4 hPa South 17.1 km/h 22.2 km/h 66 % 0 mm
15:32 10.7 °C 4.6 °C 1030.4 hPa South 10.9 km/h 20.9 km/h 66 % 0 mm
15:37 10.7 °C 4.4 °C 1030.4 hPa SSW 14.5 km/h 18.5 km/h 65 % 0 mm
15:42 10.8 °C 4.4 °C 1030.4 hPa SSW 15.6 km/h 24.1 km/h 65 % 0 mm
15:47 10.7 °C 4.4 °C 1030.4 hPa North 7.2 km/h 11.1 km/h 65 % 0 mm
15:52 10.8 °C 4.7 °C 1030.4 hPa SSW 12.2 km/h 16.7 km/h 66 % 0 mm
15:57 10.7 °C 5.1 °C 1030.4 hPa SSW 9.2 km/h 14.8 km/h 68 % 0 mm
16:02 10.7 °C 4.8 °C 1030.4 hPa SSE 14.5 km/h 18.5 km/h 67 % 0 mm
16:07 10.6 °C 4.7 °C 1030.4 hPa South 10.5 km/h 18.5 km/h 67 % 0 mm
16:12 10.6 °C 4.7 °C 1030.4 hPa SSE 13.4 km/h 18.5 km/h 67 % 0 mm
16:17 10.6 °C 4.4 °C 1030.4 hPa South 11.7 km/h 20.4 km/h 66 % 0 mm
16:22 10.6 °C 4.7 °C 1030 hPa North 17.7 km/h 22.2 km/h 67 % 0 mm
16:27 10.5 °C 4.8 °C 1030.4 hPa SSW 11.3 km/h 16.7 km/h 68 % 0 mm
16:32 10.5 °C 5.1 °C 1030.4 hPa North 10.6 km/h 13 km/h 69 % 0 mm
16:37 10.5 °C 4.8 °C 1030.4 hPa North 12.9 km/h 16.7 km/h 68 % 0 mm
16:42 10.4 °C 4.6 °C 1030.4 hPa SSW 16.3 km/h 18.5 km/h 67 % 0 mm
16:47 10.4 °C 4.8 °C 1030.4 hPa SSW 15 km/h 20.4 km/h 68 % 0 mm
16:52 10.4 °C 4.9 °C 1030.4 hPa South 9.2 km/h 11.3 km/h 69 % 0 mm
16:57 10.3 °C 4.9 °C 1030.4 hPa South 9 km/h 14.8 km/h 69 % 0 mm
17:02 10.3 °C 5.1 °C 1030 hPa South 14 km/h 19.3 km/h 70 % 0 mm
17:07 10.3 °C 5.1 °C 1030 hPa South 14.5 km/h 25.9 km/h 70 % 0 mm
17:12 10.2 °C 5.4 °C 1030 hPa South 9 km/h 11.1 km/h 72 % 0 mm
17:17 10.2 °C 5.6 °C 1030.4 hPa South 8.4 km/h 14.5 km/h 73 % 0 mm
17:22 10.2 °C 5.7 °C 1030 hPa SSW 12.2 km/h 20.4 km/h 74 % 0 mm
17:27 10.1 °C 5.7 °C 1030 hPa SSW 11.7 km/h 20.4 km/h 74 % 0 mm
17:32 10 °C 5.8 °C 1030.4 hPa SSW 7.9 km/h 12.9 km/h 75 % 0 mm
17:37 10 °C 5.9 °C 1030.4 hPa SSW 9.8 km/h 13 km/h 76 % 0 mm
17:42 9.9 °C 5.9 °C 1030.4 hPa North 6.9 km/h 18.5 km/h 76 % 0 mm
17:47 9.9 °C 6.1 °C 1030.4 hPa South 6.8 km/h 11.1 km/h 77 % 0 mm
17:52 9.8 °C 6 °C 1030.4 hPa South 9.3 km/h 16.7 km/h 77 % 0 mm
17:57 9.8 °C 5.9 °C 1030.4 hPa South 9.3 km/h 14.5 km/h 77 % 0 mm
18:02 9.8 °C 6.1 °C 1030.4 hPa SSW 9 km/h 14.8 km/h 78 % 0 mm
18:07 9.7 °C 6.1 °C 1030.4 hPa North 8.9 km/h 13 km/h 78 % 0 mm
18:12 9.7 °C 6.2 °C 1030.7 hPa South 5.6 km/h 13 km/h 79 % 0 mm
18:17 9.6 °C 6.2 °C 1030.7 hPa South 7.6 km/h 14.8 km/h 79 % 0 mm
18:22 9.6 °C 5.9 °C 1030.7 hPa South 6.4 km/h 11.1 km/h 78 % 0 mm
18:27 9.6 °C 5.9 °C 1030.7 hPa SSW 11.3 km/h 18.5 km/h 78 % 0 mm
18:32 9.6 °C 5.7 °C 1030.7 hPa SSW 10.5 km/h 16.7 km/h 77 % 0 mm
18:37 9.5 °C 5.5 °C 1030.7 hPa SSW 8.7 km/h 13 km/h 76 % 0 mm
18:42 9.5 °C 5.5 °C 1030.7 hPa SSW 6.6 km/h 11.3 km/h 76 % 0 mm
18:47 9.4 °C 5.2 °C 1030.7 hPa South 11.9 km/h 16.7 km/h 75 % 0 mm
18:52 9.4 °C 4.8 °C 1031 hPa South 7.4 km/h 13 km/h 73 % 0 mm
18:57 9.4 °C 4.6 °C 1031 hPa South 12.9 km/h 19.3 km/h 72 % 0 mm
19:02 9.4 °C 4.4 °C 1031 hPa SSW 7.7 km/h 12.9 km/h 71 % 0 mm
19:07 9.4 °C 4.7 °C 1031 hPa SSW 14 km/h 18.5 km/h 72 % 0 mm
19:12 9.5 °C 4.7 °C 1030.7 hPa South 7.9 km/h 18.5 km/h 72 % 0 mm
19:17 9.4 °C 4.7 °C 1031 hPa SSW 11.3 km/h 18.5 km/h 72 % 0 mm
19:22 9.4 °C 4.6 °C 1031 hPa South 7.9 km/h 11.1 km/h 72 % 0 mm
19:27 9.4 °C 4.8 °C 1031 hPa South 10.1 km/h 16.7 km/h 73 % 0 mm
19:32 9.3 °C 4.7 °C 1031 hPa South 11.6 km/h 16.7 km/h 73 % 0 mm
19:37 9.3 °C 4.7 °C 1031 hPa South 6.4 km/h 16.7 km/h 73 % 0 mm
19:42 9.3 °C 4.7 °C 1031 hPa SSW 9.7 km/h 13 km/h 73 % 0 mm
19:47 9.3 °C 4.7 °C 1031 hPa South 12.4 km/h 16.7 km/h 73 % 0 mm
19:48 9.3 °C 4.7 °C 1031 hPa South 9 km/h 16.7 km/h 73 % 0 mm
19:52 9.3 °C 4.7 °C 1031 hPa South 6.9 km/h 13 km/h 73 % 0 mm
19:57 9.3 °C 4.7 °C 1031 hPa SSW 9 km/h 20.4 km/h 73 % 0 mm
20:02 9.3 °C 4.7 °C 1031 hPa SSW 7.7 km/h 14.8 km/h 73 % 0 mm
20:07 9.3 °C 4.9 °C 1031 hPa SSW 9.5 km/h 14.8 km/h 74 % 0 mm
20:12 9.3 °C 4.9 °C 1030.7 hPa SSW 9.8 km/h 18.5 km/h 74 % 0 mm
20:17 9.3 °C 4.9 °C 1031 hPa SSW 8.5 km/h 16.1 km/h 74 % 0 mm
20:22 9.2 °C 4.8 °C 1030.7 hPa SSW 5.1 km/h 8 km/h 74 % 0 mm
20:27 9.2 °C 4.8 °C 1030.7 hPa North 11.1 km/h 11.1 km/h 74 % 0 mm
20:32 9.2 °C 4.9 °C 1031 hPa SSW 8.9 km/h 13 km/h 75 % 0 mm
20:37 9.2 °C 5 °C 1030.7 hPa SSW 9.7 km/h 9.7 km/h 75 % 0 mm
20:42 9.2 °C 4.9 °C 1031 hPa SSW 7.7 km/h 11.1 km/h 75 % 0 mm
20:47 9.2 °C 4.9 °C 1030.7 hPa North 5 km/h 9.3 km/h 75 % 0 mm
20:52 9.2 °C 5.2 °C 1031 hPa SSW 7.4 km/h 11.1 km/h 76 % 0 mm
20:57 9.2 °C 5.2 °C 1031 hPa SSW 9.7 km/h 11.3 km/h 76 % 0 mm
21:02 9.2 °C 5 °C 1030.7 hPa SSW 7.2 km/h 9.3 km/h 75 % 0 mm
21:07 9.2 °C 5.2 °C 1031 hPa SSW 7.4 km/h 9.7 km/h 76 % 0 mm
21:12 9.2 °C 5.2 °C 1031 hPa SSW 5.5 km/h 9.3 km/h 76 % 0 mm
21:18 9.2 °C 5 °C 1030.7 hPa SSW 5.5 km/h 11.1 km/h 75 % 0 mm
21:23 9.2 °C 5 °C 1030.7 hPa SSW 7.4 km/h 12.9 km/h 75 % 0 mm
21:28 9.3 °C 5.1 °C 1030.7 hPa SSW 5.8 km/h 11.1 km/h 75 % 0 mm
21:33 9.3 °C 5.1 °C 1030.7 hPa SSW 9.7 km/h 16.7 km/h 75 % 0 mm
21:38 9.3 °C 4.9 °C 1031 hPa SSW 8.5 km/h 13 km/h 74 % 0 mm
21:43 9.4 °C 5 °C 1030.7 hPa North 6.9 km/h 9.3 km/h 74 % 0 mm
21:48 9.4 °C 5.2 °C 1031 hPa SSW 5 km/h 7.4 km/h 75 % 0 mm
21:53 9.3 °C 5.1 °C 1031 hPa SSW 9 km/h 14.8 km/h 75 % 0 mm
21:58 9.3 °C 5.1 °C 1030.7 hPa North 9.2 km/h 9.3 km/h 75 % 0 mm
22:03 9.3 °C 5.1 °C 1030.7 hPa SSW 4.3 km/h 11.1 km/h 75 % 0 mm
22:08 9.3 °C 5.1 °C 1030.7 hPa SSW 5.8 km/h 13 km/h 75 % 0 mm
22:13 9.3 °C 5.1 °C 1030.7 hPa SSW 6.8 km/h 8 km/h 75 % 0 mm
22:18 9.3 °C 5.3 °C 1030.7 hPa North 4.8 km/h 7.4 km/h 76 % 0 mm
22:23 9.2 °C 5.2 °C 1030.7 hPa SSW 3.5 km/h 7.4 km/h 76 % 0 mm
22:28 9.2 °C 5.2 °C 1030.7 hPa SSW 6.6 km/h 9.3 km/h 76 % 0 mm
22:33 9.2 °C 5.2 °C 1030.4 hPa SSW 7.2 km/h 9.3 km/h 76 % 0 mm
22:38 9.2 °C 5.2 °C 1030.4 hPa SSW 7.2 km/h 9.3 km/h 76 % 0 mm
22:43 9.2 °C 5.2 °C 1030.4 hPa SSW 6.4 km/h 11.1 km/h 76 % 0 mm
22:48 9.2 °C 5.2 °C 1030.4 hPa SSW 8.2 km/h 12.9 km/h 76 % 0 mm
22:53 9.3 °C 5.3 °C 1030.4 hPa SSW 3.7 km/h 5.6 km/h 76 % 0 mm
22:58 9.3 °C 5.3 °C 1030.4 hPa SSW 7.1 km/h 11.1 km/h 76 % 0 mm
23:03 9.3 °C 5.1 °C 1030.4 hPa SSW 7.7 km/h 11.1 km/h 75 % 0 mm
23:08 9.3 °C 5.1 °C 1030.4 hPa SSW 9.8 km/h 16.7 km/h 75 % 0 mm
23:13 9.4 °C 5.2 °C 1030.4 hPa SSW 6.4 km/h 11.1 km/h 75 % 0 mm
23:18 9.4 °C 5.2 °C 1030.4 hPa SSW 9.2 km/h 14.8 km/h 75 % 0 mm
23:23 9.4 °C 5.2 °C 1030.4 hPa SSW 4.2 km/h 5.6 km/h 75 % 0 mm
23:28 9.4 °C 5.2 °C 1030.4 hPa SSW 4.8 km/h 9.3 km/h 75 % 0 mm
23:33 9.4 °C 5.2 °C 1030.4 hPa SSW 6.3 km/h 11.1 km/h 75 % 0 mm
23:38 9.4 °C 5.2 °C 1030.4 hPa SSW 8.2 km/h 13 km/h 75 % 0 mm
23:43 9.4 °C 5.2 °C 1030.4 hPa SSW 8.2 km/h 14.8 km/h 75 % 0 mm
23:48 9.4 °C 5.1 °C 1030.4 hPa SSW 12.6 km/h 18.5 km/h 74 % 0 mm
23:53 9.5 °C 5.1 °C 1030 hPa SSW 9.3 km/h 14.8 km/h 74 % 0 mm
23:58 9.5 °C 5.1 °C 1030 hPa North 8.2 km/h 11.1 km/h 74 % 0 mm
Ararat Weather
Compliments of Weather Underground - 2.5 mb
Click here to send mail.


ABOUT

Live weather data from Ararat, Victoria, Australia, 3377
Data uploaded from Cumulus every 5 minutes to Weather Underground.
This site then downloads the raw data for formatting and display.
Metric and imperial data can be displayed. Graphs and historical data available.
Includes Sun and Moon times and rain image live from BOM.

Check out Ararat Weather on Facebook, Twitter and Google +

Help support ongoing costs by checking out the ads





Follow @AraratWeather